< < Back
Terminal Aerodrome Forecast


Current Version              Previous Versions:   1  2  3  4  5  6  7  8  9  

Terminal Aerodrome Forecast

035
FTAK31 PAJN 292300
TAFAHN
TAF
PAHN 292327Z 3000/3024 29007KT P6SM VCSH OVC035
      TEMPO 3000/3004 4SM -SHSN BKN022 OVC030
     FM300400 30007KT P6SM VCSH BKN025 OVC050
     FM301000 30005KT P6SM SCT025 OVC050
     FM301500 30013KT P6SM SCT100
      AMD LTD TO CLD VIS AND WIND=



Latest METAR

542
SAUS70 KWBC 300600
MTRAHN
METAR KAHN 300551Z AUTO VRB05KT 10SM OVC060 11/01 A3005 RMK AO2 SLP177
60000 T01060011 10111 20094 58017


USA.gov is the U.S. government's official web portal to all federal, state and local government web resources and services.